createdAt,value
2023-03-22T00:00:01.540Z,67.42
2023-03-22T00:02:30.430Z,68.24
2023-03-22T00:04:57.220Z,67.62
2023-03-22T00:07:24.004Z,67.81
2023-03-22T00:09:51.031Z,68.73
2023-03-22T00:12:18.726Z,69.76
2023-03-22T00:14:45.637Z,68.90
2023-03-22T00:17:12.386Z,68.77
2023-03-22T00:19:42.108Z,68.66
2023-03-22T00:22:08.859Z,68.93
2023-03-22T00:24:35.580Z,69.01
2023-03-22T00:27:02.306Z,69.67
2023-03-22T00:29:29.636Z,69.96
2023-03-22T00:31:56.417Z,70.61
2023-03-22T00:34:23.364Z,70.29
2023-03-22T00:36:51.829Z,70.48
2023-03-22T00:39:18.529Z,69.69
2023-03-22T00:41:45.345Z,69.69
2023-03-22T00:44:12.221Z,70.27
2023-03-22T00:46:39.066Z,69.64
2023-03-22T00:49:06.050Z,70.05
2023-03-22T00:51:32.828Z,70.09
2023-03-22T00:53:59.602Z,70.34
2023-03-22T00:56:28.731Z,71.38
2023-03-22T00:58:55.747Z,71.42
2023-03-22T01:01:22.538Z,72.54
2023-03-22T01:03:50.753Z,72.16
2023-03-22T01:06:18.098Z,71.84
2023-03-22T01:08:44.850Z,72.75
2023-03-22T01:11:11.606Z,72.65
2023-03-22T01:13:38.618Z,71.86
2023-03-22T01:16:06.725Z,72.18
2023-03-22T01:18:33.951Z,72.67
2023-03-22T01:21:00.685Z,74.18
2023-03-22T01:23:27.946Z,73.59
2023-03-22T01:25:54.677Z,73.92
2023-03-22T01:28:21.461Z,74.00
2023-03-22T01:30:48.187Z,74.00
2023-03-22T01:33:15.351Z,74.50
2023-03-22T01:35:42.108Z,75.03
2023-03-22T01:38:08.803Z,75.02
2023-03-22T01:40:35.657Z,74.33
2023-03-22T01:43:02.400Z,74.37
2023-03-22T01:45:35.707Z,74.99
2023-03-22T01:48:07.357Z,75.30
2023-03-22T01:50:34.663Z,75.48
2023-03-22T01:53:04.997Z,76.29
2023-03-22T01:55:33.288Z,76.17
2023-03-22T01:58:00.913Z,76.05
2023-03-22T02:00:27.866Z,75.11
2023-03-22T02:02:54.602Z,74.72
2023-03-22T02:05:22.397Z,74.54
2023-03-22T02:07:49.926Z,74.73
2023-03-22T02:10:20.015Z,75.76
2023-03-22T02:13:04.616Z,76.18
2023-03-22T02:15:40.942Z,75.91
2023-03-22T02:18:11.463Z,75.13
2023-03-22T02:21:06.477Z,75.77
2023-03-22T02:24:04.279Z,76.81
2023-03-22T02:26:47.078Z,76.70
2023-03-22T02:29:26.406Z,75.89
2023-03-22T02:31:55.929Z,75.14
2023-03-22T02:34:31.277Z,75.62
2023-03-22T02:37:12.854Z,76.09
2023-03-22T02:40:00.008Z,76.25
2023-03-22T02:42:55.298Z,75.63
2023-03-22T02:45:35.468Z,75.12
2023-03-22T02:48:22.302Z,74.44
2023-03-22T02:50:55.181Z,75.14
2023-03-22T02:53:25.337Z,75.08
2023-03-22T02:56:04.218Z,74.82
2023-03-22T02:58:45.821Z,75.81
2023-03-22T03:01:21.672Z,75.77
2023-03-22T03:03:50.129Z,75.00
2023-03-22T03:06:19.701Z,74.89
2023-03-22T03:08:50.767Z,75.00
2023-03-22T03:11:18.032Z,74.87
2023-03-22T03:13:48.049Z,75.67
2023-03-22T03:16:17.514Z,75.23
2023-03-22T03:18:50.461Z,74.26
2023-03-22T03:21:24.980Z,74.49
2023-03-22T03:24:03.465Z,73.83
2023-03-22T03:26:41.940Z,75.20
2023-03-22T03:29:16.338Z,75.21
2023-03-22T03:31:43.180Z,75.40
2023-03-22T03:34:24.139Z,74.96
2023-03-22T03:37:01.754Z,72.65
2023-03-22T03:39:31.150Z,73.00
2023-03-22T03:41:58.552Z,72.43
2023-03-22T03:44:25.466Z,73.26
2023-03-22T03:46:52.987Z,72.70
2023-03-22T03:49:20.669Z,73.08
2023-03-22T03:51:52.751Z,72.97
2023-03-22T03:54:20.342Z,73.28
2023-03-22T03:56:48.172Z,73.48
2023-03-22T03:59:18.847Z,73.09
2023-03-22T04:01:50.400Z,73.52
2023-03-22T04:04:28.695Z,75.09
2023-03-22T04:06:57.312Z,75.15
2023-03-22T04:09:29.431Z,74.01
2023-03-22T04:11:57.161Z,73.94
2023-03-22T04:14:24.666Z,74.05
2023-03-22T04:16:51.962Z,75.47
2023-03-22T04:19:19.359Z,75.21
2023-03-22T04:21:46.447Z,76.84
2023-03-22T04:24:13.796Z,77.75
2023-03-22T04:26:41.266Z,78.38
2023-03-22T04:29:08.162Z,79.27
2023-03-22T04:31:39.125Z,78.00
2023-03-22T04:34:06.090Z,77.33
2023-03-22T04:36:36.496Z,77.69
2023-03-22T04:39:07.600Z,77.90
2023-03-22T04:41:34.698Z,77.72
2023-03-22T04:44:04.416Z,77.74
2023-03-22T04:46:32.965Z,78.06
2023-03-22T04:49:00.062Z,77.08
2023-03-22T04:51:27.993Z,76.70
2023-03-22T04:53:54.740Z,77.43
2023-03-22T04:56:21.859Z,78.91
2023-03-22T04:58:48.612Z,79.89
2023-03-22T05:01:17.439Z,79.58
2023-03-22T05:03:47.836Z,78.56
2023-03-22T05:06:15.307Z,79.19
2023-03-22T05:08:42.326Z,77.29
2023-03-22T05:11:12.480Z,77.00
2023-03-22T05:13:39.695Z,76.79
2023-03-22T05:16:07.503Z,76.37
2023-03-22T05:18:34.378Z,74.96
2023-03-22T05:21:03.809Z,75.11
2023-03-22T05:23:30.605Z,75.28
2023-03-22T05:25:58.315Z,75.06
2023-03-22T05:28:27.210Z,76.31
2023-03-22T05:30:56.663Z,76.45
2023-03-22T05:33:23.899Z,75.67
2023-03-22T05:35:51.215Z,74.04
2023-03-22T05:38:18.244Z,74.17
2023-03-22T05:40:45.609Z,74.28
2023-03-22T05:43:12.373Z,74.52
2023-03-22T05:45:39.054Z,74.10
2023-03-22T05:48:06.266Z,73.97
2023-03-22T05:50:33.762Z,73.59
2023-03-22T05:53:00.800Z,73.61
2023-03-22T05:55:27.748Z,73.04
2023-03-22T05:57:54.829Z,73.00
2023-03-22T06:00:23.730Z,73.63
2023-03-22T06:02:52.928Z,72.90
2023-03-22T06:05:21.077Z,71.81
2023-03-22T06:07:47.822Z,70.88
2023-03-22T06:10:15.540Z,71.12
2023-03-22T06:12:42.311Z,70.48
2023-03-22T06:15:09.781Z,69.90
2023-03-22T06:17:36.801Z,68.70
2023-03-22T06:20:10.319Z,67.58
2023-03-22T06:22:37.917Z,66.55
2023-03-22T06:25:06.746Z,65.96
2023-03-22T06:27:33.635Z,64.64
2023-03-22T06:30:00.393Z,63.20
2023-03-22T06:32:27.701Z,61.27
2023-03-22T06:34:54.806Z,59.57
2023-03-22T06:37:22.119Z,58.60
2023-03-22T06:39:48.992Z,57.90
2023-03-22T06:42:15.784Z,57.54
2023-03-22T06:44:44.544Z,56.64
2023-03-22T06:47:11.747Z,55.95
2023-03-22T06:49:38.830Z,56.63
2023-03-22T06:52:05.801Z,54.36
2023-03-22T06:54:32.575Z,53.69
2023-03-22T06:56:59.386Z,54.30
2023-03-22T06:59:26.310Z,54.13
2023-03-22T07:01:53.074Z,53.53
2023-03-22T07:04:20.222Z,53.17
2023-03-22T07:06:47.101Z,52.46
2023-03-22T07:09:13.958Z,52.88
2023-03-22T07:11:42.068Z,52.28
2023-03-22T07:14:09.012Z,51.75
2023-03-22T07:16:35.853Z,51.14
2023-03-22T07:19:03.499Z,50.65
2023-03-22T07:21:30.419Z,51.88
2023-03-22T07:23:58.215Z,53.06
2023-03-22T07:26:26.452Z,52.00
2023-03-22T07:28:53.434Z,51.29
2023-03-22T07:31:20.338Z,50.82
2023-03-22T07:33:48.239Z,50.89
2023-03-22T07:36:15.461Z,50.89
2023-03-22T07:38:42.261Z,51.04
2023-03-22T07:41:09.022Z,50.70
2023-03-22T07:43:50.843Z,49.36
2023-03-22T07:46:19.971Z,48.77
2023-03-22T07:48:46.851Z,48.83
2023-03-22T07:51:15.372Z,48.99
2023-03-22T07:53:42.131Z,49.34
2023-03-22T07:56:09.186Z,47.62
2023-03-22T07:58:36.516Z,48.38
2023-03-22T08:01:05.519Z,47.02
2023-03-22T08:03:32.324Z,46.81
2023-03-22T08:06:03.811Z,47.78
2023-03-22T08:08:30.682Z,47.91
2023-03-22T08:10:57.412Z,47.65
2023-03-22T08:13:24.266Z,47.19
2023-03-22T08:15:50.951Z,46.80
2023-03-22T08:18:18.264Z,45.96
2023-03-22T08:20:45.719Z,46.04
2023-03-22T08:23:16.084Z,45.97
2023-03-22T08:25:43.336Z,46.11
2023-03-22T08:28:10.657Z,46.20
2023-03-22T08:30:38.325Z,45.94
2023-03-22T08:33:06.543Z,46.03
2023-03-22T08:35:33.792Z,45.92
2023-03-22T08:38:01.277Z,46.51
2023-03-22T08:40:28.085Z,46.09
2023-03-22T08:42:55.144Z,46.14
2023-03-22T08:45:21.930Z,46.02
2023-03-22T08:47:48.744Z,46.20
2023-03-22T08:50:15.529Z,45.81
2023-03-22T08:52:42.810Z,45.90
2023-03-22T08:55:10.161Z,44.81
2023-03-22T08:57:38.839Z,44.78
2023-03-22T09:00:06.857Z,44.82
2023-03-22T09:02:33.808Z,45.04
2023-03-22T09:05:00.498Z,44.29
2023-03-22T09:07:27.747Z,44.23
2023-03-22T09:09:54.507Z,44.46
2023-03-22T09:12:21.265Z,43.85
2023-03-22T09:14:50.082Z,43.95
2023-03-22T09:17:20.163Z,44.46
2023-03-22T09:19:49.561Z,44.30
2023-03-22T09:22:16.457Z,44.31
2023-03-22T09:24:43.187Z,44.83
2023-03-22T09:27:10.038Z,45.10
2023-03-22T09:29:36.719Z,44.43
2023-03-22T09:32:03.574Z,44.67
2023-03-22T09:34:30.454Z,44.70
2023-03-22T09:36:58.642Z,44.83
2023-03-22T09:39:25.591Z,44.59
2023-03-22T09:41:55.474Z,44.31
2023-03-22T09:44:26.370Z,44.80
2023-03-22T09:46:55.533Z,44.62
2023-03-22T09:49:52.565Z,44.36
2023-03-22T09:52:20.154Z,45.41
2023-03-22T09:54:47.376Z,44.29
2023-03-22T09:57:43.607Z,45.00
2023-03-22T10:00:24.815Z,45.23
2023-03-22T10:03:10.764Z,45.97
2023-03-22T10:06:01.700Z,46.69
2023-03-22T10:08:34.406Z,47.34
2023-03-22T10:11:01.434Z,47.99
2023-03-22T10:13:30.992Z,47.00
2023-03-22T10:16:00.379Z,47.39
2023-03-22T10:18:48.949Z,47.50
2023-03-22T10:21:16.366Z,47.32
2023-03-22T10:23:46.648Z,47.92
2023-03-22T10:26:34.864Z,48.38
2023-03-22T10:29:14.034Z,47.99
2023-03-22T10:31:43.739Z,48.06
2023-03-22T10:34:22.006Z,48.27
2023-03-22T10:36:50.502Z,49.57
2023-03-22T10:39:38.645Z,49.79
2023-03-22T10:42:17.321Z,49.33
2023-03-22T10:45:06.224Z,50.09
2023-03-22T10:47:40.571Z,49.96
2023-03-22T10:50:28.544Z,49.32
2023-03-22T10:53:01.759Z,50.08
2023-03-22T10:55:28.837Z,48.95
2023-03-22T10:58:10.429Z,48.22
2023-03-22T11:00:40.247Z,48.11
2023-03-22T11:03:08.798Z,47.80
2023-03-22T11:05:35.663Z,47.01
2023-03-22T11:08:03.156Z,47.05
2023-03-22T11:10:33.531Z,46.85
2023-03-22T11:13:09.672Z,47.05
2023-03-22T11:15:40.002Z,46.36
2023-03-22T11:18:12.596Z,46.28
2023-03-22T11:20:42.172Z,46.03
2023-03-22T11:23:13.361Z,45.78
2023-03-22T11:25:46.030Z,44.68
2023-03-22T11:28:27.969Z,43.55
2023-03-22T11:31:09.719Z,42.59
2023-03-22T11:33:37.262Z,40.71
2023-03-22T11:36:14.968Z,39.68
2023-03-22T11:38:48.267Z,38.43
2023-03-22T11:41:31.998Z,37.51
2023-03-22T11:44:12.845Z,36.79
2023-03-22T11:46:40.438Z,36.52
2023-03-22T11:49:09.508Z,35.85
2023-03-22T11:51:38.817Z,35.46
2023-03-22T11:54:25.965Z,34.67
2023-03-22T11:56:58.462Z,35.69
2023-03-22T11:59:30.795Z,35.64
2023-03-22T12:01:59.000Z,35.13
2023-03-22T12:04:30.373Z,35.08
2023-03-22T12:06:59.948Z,34.75
2023-03-22T12:09:39.383Z,34.64
2023-03-22T12:12:13.443Z,35.34
2023-03-22T12:14:48.734Z,35.07
2023-03-22T12:17:41.412Z,35.24
2023-03-22T12:20:18.433Z,34.64
2023-03-22T12:22:52.650Z,34.44
2023-03-22T12:25:22.635Z,34.25
2023-03-22T12:27:58.395Z,34.50
2023-03-22T12:30:31.334Z,35.40
2023-03-22T12:33:29.069Z,34.97
2023-03-22T12:35:57.927Z,35.18
2023-03-22T12:38:57.400Z,34.71
2023-03-22T12:41:39.010Z,34.85
2023-03-22T12:44:17.220Z,35.68
2023-03-22T12:46:54.704Z,34.56
2023-03-22T12:49:42.372Z,34.67
2023-03-22T12:52:16.145Z,35.10
2023-03-22T12:54:43.577Z,33.70
2023-03-22T12:57:11.351Z,33.79
2023-03-22T12:59:38.118Z,31.95
2023-03-22T13:02:17.338Z,31.83
2023-03-22T13:04:43.994Z,31.59
2023-03-22T13:07:13.787Z,30.28
2023-03-22T13:09:50.974Z,30.35
2023-03-22T13:12:17.611Z,29.57
2023-03-22T13:14:53.167Z,30.69
2023-03-22T13:17:23.708Z,30.42
2023-03-22T13:20:07.587Z,29.27
2023-03-22T13:22:41.722Z,28.45
2023-03-22T13:25:16.721Z,28.89
2023-03-22T13:27:45.488Z,28.56
2023-03-22T13:30:21.799Z,29.12
2023-03-22T13:32:54.513Z,31.61
2023-03-22T13:35:37.937Z,28.75
2023-03-22T13:38:29.795Z,29.48
2023-03-22T13:40:59.465Z,27.57
2023-03-22T13:43:32.668Z,27.80
2023-03-22T13:46:17.840Z,28.12
2023-03-22T13:48:44.799Z,28.48
2023-03-22T13:51:15.693Z,29.70
2023-03-22T13:54:07.041Z,29.49
2023-03-22T13:56:43.114Z,28.58
2023-03-22T13:59:25.351Z,28.53
2023-03-22T14:02:15.648Z,29.76
2023-03-22T14:05:17.673Z,29.47
2023-03-22T14:07:51.239Z,31.61
2023-03-22T14:10:28.575Z,32.87
2023-03-22T14:13:02.664Z,32.40
2023-03-22T14:15:35.170Z,35.67
2023-03-22T14:18:25.841Z,34.91
2023-03-22T14:20:55.758Z,34.83
